createdAt,value
2022-07-26T04:46:21.500Z,39.38
2022-07-26T04:47:22.403Z,45.00
2022-07-26T04:48:22.400Z,45.00
2022-07-26T04:49:22.385Z,45.00
2022-07-26T04:50:22.356Z,45.00
2022-07-26T04:51:29.489Z,50.62
2022-07-26T04:52:22.336Z,50.62
2022-07-26T04:53:22.355Z,50.62
2022-07-26T04:54:22.308Z,50.62
2022-07-26T04:55:22.311Z,50.62
2022-07-26T04:56:22.297Z,50.62
2022-07-26T04:57:22.288Z,50.62
2022-07-26T04:58:22.281Z,50.62
2022-07-26T04:59:22.283Z,50.62
2022-07-26T05:00:23.636Z,50.62
2022-07-26T05:01:22.256Z,56.25
2022-07-26T05:02:22.338Z,61.88
2022-07-26T05:03:22.215Z,67.50
2022-07-26T05:04:22.209Z,78.75
2022-07-26T05:05:22.321Z,78.75
2022-07-26T05:06:22.175Z,78.75
2022-07-26T05:07:22.173Z,78.75
2022-07-26T05:08:23.085Z,78.75
2022-07-26T05:09:22.154Z,73.12
2022-07-26T05:10:22.216Z,78.75
2022-07-26T05:11:22.130Z,78.75
2022-07-26T05:12:22.179Z,78.75
2022-07-26T05:13:25.241Z,73.12
2022-07-26T05:15:17.234Z,78.75
2022-07-26T05:16:18.238Z,95.62
2022-07-26T05:17:18.251Z,106.88
2022-07-26T05:18:18.178Z,118.12
2022-07-26T05:19:18.176Z,123.75
2022-07-26T05:20:18.152Z,129.38
2022-07-26T05:21:18.136Z,118.12
2022-07-26T05:22:18.130Z,112.50
2022-07-26T05:23:18.148Z,112.50
2022-07-26T05:24:18.115Z,112.50
2022-07-26T05:25:18.107Z,106.88
2022-07-26T05:26:18.117Z,106.88
2022-07-26T05:27:18.080Z,106.88
2022-07-26T05:28:18.070Z,112.50
2022-07-26T05:29:18.069Z,123.75
2022-07-26T05:30:18.086Z,129.38
2022-07-26T05:31:18.065Z,135.00
2022-07-26T05:32:18.025Z,140.62
2022-07-26T05:33:18.013Z,135.00
2022-07-26T05:34:18.011Z,135.00
2022-07-26T05:35:17.993Z,135.00
2022-07-26T05:36:17.991Z,140.62
2022-07-26T05:37:17.955Z,146.25
2022-07-26T05:38:17.968Z,146.25
2022-07-26T05:39:18.585Z,140.62
2022-07-26T05:40:17.966Z,135.00
2022-07-26T05:41:17.929Z,135.00
2022-07-26T05:42:17.914Z,140.62
2022-07-26T05:43:17.903Z,146.25
2022-07-26T05:44:17.892Z,151.88
2022-07-26T05:45:17.886Z,151.88
2022-07-26T05:46:17.929Z,157.50
2022-07-26T05:47:17.963Z,157.50
2022-07-26T05:48:17.917Z,151.88
2022-07-26T05:49:17.875Z,151.88
2022-07-26T05:50:17.821Z,151.88
2022-07-26T05:51:18.042Z,157.50
2022-07-26T05:52:17.810Z,163.12
2022-07-26T05:53:17.792Z,168.75
2022-07-26T05:54:17.771Z,168.75
2022-07-26T05:55:17.772Z,168.75
2022-07-26T05:56:17.747Z,168.75
2022-07-26T05:57:17.749Z,174.38
2022-07-26T05:58:17.737Z,180.00
2022-07-26T05:59:17.746Z,174.38
2022-07-26T06:00:17.746Z,174.38
2022-07-26T06:01:17.693Z,180.00
2022-07-26T06:02:17.785Z,180.00
2022-07-26T06:03:17.681Z,185.62
2022-07-26T06:04:17.903Z,196.88
2022-07-26T06:05:17.671Z,202.50
2022-07-26T06:06:17.711Z,208.12
2022-07-26T06:07:17.626Z,213.75
2022-07-26T06:08:17.678Z,208.12
2022-07-26T06:09:17.600Z,219.38
2022-07-26T06:10:17.620Z,225.00
2022-07-26T06:11:17.603Z,219.38
2022-07-26T06:12:17.600Z,213.75
2022-07-26T06:13:17.584Z,196.88
2022-07-26T06:14:17.569Z,185.62
2022-07-26T06:15:17.583Z,208.12
2022-07-26T06:16:17.540Z,230.62
2022-07-26T06:17:17.575Z,241.88
2022-07-26T06:18:17.520Z,253.12
2022-07-26T06:19:17.514Z,258.75
2022-07-26T06:20:18.326Z,253.12
2022-07-26T06:21:17.477Z,230.62
2022-07-26T06:22:17.691Z,191.25
2022-07-26T06:23:17.455Z,168.75
2022-07-26T06:24:17.481Z,163.12
2022-07-26T06:25:17.467Z,168.75
2022-07-26T06:26:17.432Z,191.25
2022-07-26T06:27:17.416Z,230.62
2022-07-26T06:28:17.436Z,253.12
2022-07-26T06:29:17.415Z,258.75
2022-07-26T06:30:18.233Z,253.12
2022-07-26T06:31:17.451Z,236.25
2022-07-26T06:32:17.476Z,213.75
2022-07-26T06:33:17.373Z,219.38
2022-07-26T06:34:17.343Z,225.00
2022-07-26T06:35:23.829Z,225.00
2022-07-26T06:36:17.317Z,230.62
2022-07-26T06:37:17.307Z,236.25
2022-07-26T06:38:17.331Z,230.62
2022-07-26T06:39:17.318Z,219.38
2022-07-26T06:40:17.279Z,230.62
2022-07-26T06:41:17.286Z,236.25
2022-07-26T06:42:17.262Z,219.38
2022-07-26T06:43:17.281Z,213.75
2022-07-26T06:44:17.243Z,196.88
2022-07-26T06:45:17.250Z,191.25
2022-07-26T06:46:17.268Z,191.25
2022-07-26T06:47:17.206Z,191.25
2022-07-26T06:48:17.233Z,185.62
2022-07-26T06:49:21.854Z,180.00
2022-07-26T06:50:17.208Z,174.38
2022-07-26T06:51:17.152Z,163.12
2022-07-26T06:52:17.148Z,151.88
2022-07-26T06:53:17.131Z,129.38
2022-07-26T06:54:17.128Z,118.12
2022-07-26T06:55:17.118Z,123.75
2022-07-26T06:56:17.109Z,118.12
2022-07-26T06:57:17.091Z,112.50
2022-07-26T06:58:17.093Z,101.25
2022-07-26T06:59:17.097Z,95.62
2022-07-26T07:00:17.068Z,106.88
2022-07-26T07:01:55.485Z,123.75
2022-07-26T07:02:17.115Z,135.00
2022-07-26T07:03:17.044Z,135.00
2022-07-26T07:04:17.212Z,135.00
2022-07-26T07:05:17.070Z,129.38
2022-07-26T07:06:17.001Z,129.38
2022-07-26T07:07:17.025Z,146.25
2022-07-26T07:08:16.981Z,168.75
2022-07-26T07:09:16.977Z,185.62
2022-07-26T07:10:16.950Z,185.62
2022-07-26T07:11:16.979Z,168.75
2022-07-26T07:12:16.985Z,163.12
2022-07-26T07:13:16.930Z,168.75
2022-07-26T07:14:16.923Z,191.25
2022-07-26T07:15:16.909Z,225.00
2022-07-26T07:16:16.978Z,247.50
2022-07-26T07:17:20.163Z,275.62
2022-07-26T07:18:16.879Z,286.88
2022-07-26T07:19:16.896Z,286.88
2022-07-26T07:20:16.845Z,303.75
2022-07-26T07:21:16.823Z,303.75
2022-07-26T07:22:16.838Z,309.38
2022-07-26T07:23:16.837Z,303.75
2022-07-26T07:24:16.806Z,309.38
2022-07-26T07:25:16.792Z,281.25
2022-07-26T07:26:16.766Z,247.50
2022-07-26T07:27:16.778Z,247.50
2022-07-26T07:28:16.777Z,270.00
2022-07-26T07:29:16.738Z,264.38
2022-07-26T07:30:16.744Z,264.38
2022-07-26T07:31:16.783Z,264.38
2022-07-26T07:32:18.725Z,270.00
2022-07-26T07:33:22.505Z,286.88
2022-07-26T07:34:16.686Z,292.50
2022-07-26T07:35:16.665Z,303.75
2022-07-26T07:36:16.659Z,315.00
2022-07-26T07:37:16.708Z,315.00
2022-07-26T07:38:16.652Z,298.12
2022-07-26T07:39:17.550Z,270.00
2022-07-26T07:40:16.624Z,264.38
2022-07-26T07:41:16.620Z,270.00
2022-07-26T07:42:16.616Z,275.62
2022-07-26T07:43:16.609Z,275.62
2022-07-26T07:44:16.575Z,275.62
2022-07-26T07:45:16.573Z,270.00
2022-07-26T07:46:16.592Z,286.88
2022-07-26T07:47:16.550Z,315.00
2022-07-26T07:48:33.753Z,331.88
2022-07-26T07:49:16.558Z,343.12
2022-07-26T07:50:16.540Z,371.25
2022-07-26T07:51:16.507Z,388.12
2022-07-26T07:52:16.514Z,388.12
2022-07-26T07:53:16.504Z,388.12
2022-07-26T07:54:16.465Z,365.62
2022-07-26T07:55:40.446Z,331.88
2022-07-26T07:56:16.469Z,309.38
2022-07-26T07:57:16.484Z,309.38
2022-07-26T07:58:17.238Z,331.88
2022-07-26T07:59:16.456Z,365.62
2022-07-26T08:00:16.403Z,393.75
2022-07-26T08:01:16.458Z,405.00
2022-07-26T08:02:16.382Z,433.12
2022-07-26T08:03:17.968Z,444.38
2022-07-26T08:04:16.454Z,433.12
2022-07-26T08:05:16.359Z,427.50
2022-07-26T08:06:16.348Z,433.12
2022-07-26T08:07:16.308Z,450.00
2022-07-26T08:08:16.319Z,478.12
2022-07-26T08:09:16.320Z,511.88
2022-07-26T08:10:16.358Z,545.62
2022-07-26T08:11:16.279Z,568.12
2022-07-26T08:12:16.258Z,562.50
2022-07-26T08:13:16.271Z,551.25
2022-07-26T08:14:16.276Z,556.88
2022-07-26T08:15:16.300Z,568.12
2022-07-26T08:16:16.329Z,562.50
2022-07-26T08:17:16.210Z,540.00
2022-07-26T08:18:16.196Z,545.62
2022-07-26T08:19:16.642Z,540.00
2022-07-26T08:20:16.246Z,551.25
2022-07-26T08:21:16.205Z,534.38
2022-07-26T08:22:16.165Z,455.62
2022-07-26T08:23:16.152Z,438.75
2022-07-26T08:24:16.174Z,506.25
2022-07-26T08:25:16.110Z,528.75
2022-07-26T08:26:16.104Z,517.50
2022-07-26T08:27:16.116Z,540.00
2022-07-26T08:28:37.424Z,562.50
2022-07-26T08:29:16.560Z,478.12
2022-07-26T08:30:16.066Z,472.50
2022-07-26T08:31:16.211Z,489.38
2022-07-26T08:32:16.049Z,478.12
2022-07-26T08:33:16.064Z,489.38
2022-07-26T08:34:16.029Z,540.00
2022-07-26T08:35:17.657Z,556.88
2022-07-26T08:36:15.996Z,579.38
2022-07-26T08:37:17.860Z,601.88
2022-07-26T08:38:15.978Z,618.75
2022-07-26T08:39:15.999Z,579.38
2022-07-26T08:40:15.947Z,562.50
2022-07-26T08:41:15.935Z,590.62
2022-07-26T08:42:15.936Z,624.38
2022-07-26T08:43:15.938Z,646.88
2022-07-26T08:44:15.925Z,663.75
2022-07-26T08:45:15.904Z,646.88
2022-07-26T08:46:15.984Z,630.00
2022-07-26T08:47:15.871Z,618.75
2022-07-26T08:48:17.610Z,652.50
2022-07-26T08:49:16.056Z,646.88
2022-07-26T08:50:16.066Z,562.50
2022-07-26T08:51:15.848Z,579.38
2022-07-26T08:52:15.847Z,590.62
2022-07-26T08:53:15.818Z,624.38
2022-07-26T08:54:15.809Z,675.00
2022-07-26T08:55:22.315Z,658.12
2022-07-26T08:56:15.781Z,624.38
2022-07-26T08:57:15.774Z,624.38
2022-07-26T08:58:15.775Z,635.62
2022-07-26T08:59:20.069Z,675.00
2022-07-26T09:00:15.834Z,680.62
2022-07-26T09:01:15.810Z,624.38
2022-07-26T09:02:15.710Z,663.75
2022-07-26T09:03:15.693Z,753.75
2022-07-26T09:04:30.012Z,753.75
2022-07-26T09:05:15.714Z,658.12
2022-07-26T09:06:15.666Z,556.88
2022-07-26T09:07:15.683Z,506.25
2022-07-26T09:08:15.648Z,478.12
2022-07-26T09:09:15.640Z,478.12
2022-07-26T09:10:15.719Z,489.38
2022-07-26T09:11:15.624Z,562.50
2022-07-26T09:12:15.598Z,562.50
2022-07-26T09:13:15.588Z,517.50
2022-07-26T09:14:15.594Z,472.50
2022-07-26T09:15:22.129Z,438.75
2022-07-26T09:16:15.586Z,444.38
2022-07-26T09:17:15.586Z,483.75
2022-07-26T09:18:15.543Z,506.25
2022-07-26T09:19:15.534Z,506.25
2022-07-26T09:20:15.619Z,478.12
2022-07-26T09:21:16.425Z,478.12
2022-07-26T09:22:15.526Z,483.75
2022-07-26T09:23:15.480Z,478.12
2022-07-26T09:24:15.472Z,495.00
2022-07-26T09:25:15.489Z,495.00
2022-07-26T09:26:15.447Z,489.38
2022-07-26T09:27:15.471Z,478.12
2022-07-26T09:28:15.446Z,455.62
2022-07-26T09:29:15.413Z,444.38
2022-07-26T09:30:15.462Z,444.38
2022-07-26T09:31:15.458Z,444.38
2022-07-26T09:32:15.435Z,461.25
2022-07-26T09:33:15.394Z,483.75
2022-07-26T09:34:15.379Z,534.38
2022-07-26T09:35:45.254Z,607.50
2022-07-26T09:36:15.359Z,1771.88
2022-07-26T09:37:15.329Z,781.88
2022-07-26T09:38:15.331Z,1057.50
2022-07-26T09:39:15.430Z,596.25
2022-07-26T09:40:15.369Z,601.88
2022-07-26T09:41:15.289Z,703.12
2022-07-26T09:42:28.676Z,551.25
2022-07-26T09:43:15.748Z,579.38
2022-07-26T09:44:15.262Z,646.88
2022-07-26T09:45:15.242Z,798.75
2022-07-26T09:46:15.314Z,860.62
2022-07-26T09:47:15.246Z,2379.38
2022-07-26T09:48:15.226Z,1558.12
2022-07-26T09:49:15.284Z,2553.75
2022-07-26T09:50:15.457Z,2475.00
2022-07-26T09:51:15.200Z,2570.62
2022-07-26T09:52:15.178Z,2565.00
2022-07-26T09:53:15.168Z,2553.75
2022-07-26T09:54:15.885Z,1209.38
2022-07-26T09:55:21.671Z,624.38
2022-07-26T09:56:15.143Z,3009.38
2022-07-26T09:57:15.128Z,3667.50
2022-07-26T09:58:15.117Z,2716.88
2022-07-26T09:59:15.103Z,686.25
2022-07-26T10:00:15.087Z,3487.50
2022-07-26T10:01:15.151Z,3369.38
2022-07-26T10:02:15.072Z,3341.25
2022-07-26T10:03:15.104Z,1985.62
2022-07-26T10:04:15.080Z,3487.50
2022-07-26T10:05:15.053Z,3583.12
2022-07-26T10:06:15.033Z,984.38
2022-07-26T10:07:15.020Z,2761.88
2022-07-26T10:08:15.075Z,3043.12
2022-07-26T10:09:15.067Z,2913.75
2022-07-26T10:10:14.997Z,2728.12
2022-07-26T10:11:14.979Z,984.38
2022-07-26T10:12:14.976Z,2733.75
2022-07-26T10:13:14.966Z,2677.50
2022-07-26T10:14:14.946Z,810.00
2022-07-26T10:15:14.964Z,2390.62
2022-07-26T10:16:14.944Z,2998.12
2022-07-26T10:17:14.933Z,2930.62
2022-07-26T10:18:16.727Z,2812.50
2022-07-26T10:19:14.899Z,3071.25
2022-07-26T10:20:17.422Z,3043.12
2022-07-26T10:21:14.892Z,3076.88
2022-07-26T10:22:14.889Z,3015.00
2022-07-26T10:23:14.867Z,2936.25
2022-07-26T10:24:14.870Z,1108.12
2022-07-26T10:25:14.846Z,573.75
2022-07-26T10:26:14.842Z,483.75
2022-07-26T10:27:14.821Z,433.12
2022-07-26T10:28:14.807Z,450.00
2022-07-26T10:29:14.830Z,472.50
2022-07-26T10:30:14.793Z,472.50
2022-07-26T10:31:14.849Z,450.00
2022-07-26T10:32:14.774Z,455.62
2022-07-26T10:33:14.765Z,506.25
2022-07-26T10:34:14.789Z,540.00
2022-07-26T10:35:21.278Z,545.62
2022-07-26T10:36:14.734Z,573.75
2022-07-26T10:37:14.724Z,607.50
2022-07-26T10:38:14.714Z,652.50
2022-07-26T10:39:14.704Z,663.75
2022-07-26T10:40:14.728Z,641.25
2022-07-26T10:41:14.696Z,630.00
2022-07-26T10:42:14.665Z,652.50
2022-07-26T10:43:39.496Z,663.75
2022-07-26T10:44:14.644Z,669.38
2022-07-26T10:45:14.630Z,669.38
2022-07-26T10:46:14.669Z,624.38
2022-07-26T10:47:14.625Z,568.12
2022-07-26T10:48:14.615Z,506.25
2022-07-26T10:49:14.646Z,393.75
2022-07-26T10:50:31.832Z,433.12
2022-07-26T10:51:14.566Z,500.62
2022-07-26T10:52:14.571Z,973.12
2022-07-26T10:53:14.549Z,556.88
2022-07-26T10:54:14.842Z,590.62
2022-07-26T10:55:14.519Z,1096.88
2022-07-26T10:56:14.513Z,905.62
2022-07-26T10:57:14.536Z,815.62
2022-07-26T10:58:14.494Z,1051.88
2022-07-26T10:59:20.316Z,1282.50
2022-07-26T11:00:14.485Z,1175.62
2022-07-26T11:01:14.567Z,1411.88
2022-07-26T11:02:14.462Z,1130.62
2022-07-26T11:03:15.860Z,1428.75
2022-07-26T11:04:14.678Z,1586.25
2022-07-26T11:05:14.450Z,1260.00
2022-07-26T11:06:14.438Z,905.62
2022-07-26T11:07:14.410Z,798.75
2022-07-26T11:08:14.408Z,781.88
2022-07-26T11:09:14.386Z,798.75
2022-07-26T11:10:14.386Z,849.38
2022-07-26T11:11:14.360Z,922.50
2022-07-26T11:12:14.373Z,961.88
2022-07-26T11:13:14.418Z,1018.12
2022-07-26T11:14:14.741Z,1282.50
2022-07-26T11:15:14.313Z,1006.88
2022-07-26T11:16:14.387Z,1614.38
2022-07-26T11:17:14.323Z,1265.62
2022-07-26T11:18:14.283Z,1153.12
2022-07-26T11:19:14.287Z,928.12
2022-07-26T11:20:14.263Z,894.38
2022-07-26T11:21:14.274Z,911.25
2022-07-26T11:22:14.263Z,961.88
2022-07-26T11:23:14.241Z,1175.62
2022-07-26T11:24:14.689Z,905.62
2022-07-26T11:25:14.221Z,787.50
2022-07-26T11:26:14.231Z,736.88
2022-07-26T11:27:14.198Z,708.75
2022-07-26T11:28:14.190Z,753.75
2022-07-26T11:29:17.530Z,832.50
2022-07-26T11:30:14.163Z,675.00
2022-07-26T11:31:14.489Z,680.62
2022-07-26T11:32:18.105Z,669.38
2022-07-26T11:33:14.124Z,686.25
2022-07-26T11:34:14.537Z,680.62
2022-07-26T11:35:14.130Z,691.88
2022-07-26T11:36:14.103Z,697.50
2022-07-26T11:37:14.151Z,703.12
2022-07-26T11:38:14.078Z,725.62
2022-07-26T11:39:14.069Z,798.75
2022-07-26T11:40:14.049Z,866.25
2022-07-26T11:41:14.051Z,1085.62
2022-07-26T11:42:14.033Z,1096.88
2022-07-26T11:43:14.028Z,1006.88
2022-07-26T11:44:14.284Z,950.62
2022-07-26T11:45:13.997Z,950.62
2022-07-26T11:46:14.106Z,973.12
2022-07-26T11:47:14.222Z,1012.50
2022-07-26T11:48:13.979Z,1035.00
2022-07-26T11:49:15.264Z,2323.12
2022-07-26T11:50:22.260Z,1209.38
2022-07-26T11:51:14.047Z,1136.25
2022-07-26T11:52:13.929Z,1170.00
2022-07-26T11:53:13.934Z,1406.25
2022-07-26T11:54:14.277Z,1625.62
2022-07-26T11:55:13.894Z,1676.25
2022-07-26T11:56:13.931Z,1209.38
2022-07-26T11:57:13.878Z,1552.50
2022-07-26T11:58:13.863Z,1305.00
2022-07-26T11:59:13.875Z,1676.25
2022-07-26T12:00:13.881Z,1501.88
2022-07-26T12:01:13.854Z,1226.25
2022-07-26T12:02:13.952Z,2092.50
2022-07-26T12:03:13.841Z,1743.75
2022-07-26T12:04:14.260Z,3673.12
2022-07-26T12:05:13.949Z,3521.25
2022-07-26T12:06:13.801Z,3386.25
2022-07-26T12:07:13.822Z,3397.50
2022-07-26T12:08:13.764Z,3380.62
2022-07-26T12:09:13.777Z,3341.25
2022-07-26T12:10:13.767Z,3369.38
2022-07-26T12:11:13.759Z,3088.12
2022-07-26T12:12:13.752Z,3150.00
2022-07-26T12:13:13.748Z,3183.75
2022-07-26T12:14:18.441Z,3099.38
2022-07-26T12:15:13.713Z,2182.50
2022-07-26T12:16:13.796Z,573.75
2022-07-26T12:17:13.714Z,483.75
2022-07-26T12:18:13.685Z,399.38
2022-07-26T12:19:13.682Z,348.75
2022-07-26T12:20:13.692Z,303.75
2022-07-26T12:21:13.642Z,258.75
2022-07-26T12:22:13.653Z,208.12
2022-07-26T12:23:13.637Z,163.12
2022-07-26T12:24:14.012Z,135.00
2022-07-26T12:25:13.824Z,101.25
2022-07-26T12:26:13.818Z,78.75
2022-07-26T12:27:17.455Z,56.25
2022-07-26T12:28:13.570Z,39.38
2022-07-26T12:29:14.275Z,28.12
2022-07-26T12:30:13.819Z,22.50
2022-07-26T12:31:13.601Z,22.50
2022-07-26T12:32:13.554Z,22.50
2022-07-26T12:33:13.530Z,28.12
2022-07-26T12:34:13.968Z,33.75
2022-07-26T12:35:13.504Z,39.38
2022-07-26T12:36:13.527Z,39.38
2022-07-26T12:37:13.484Z,39.38
2022-07-26T12:38:13.464Z,45.00
2022-07-26T12:39:13.458Z,50.62
2022-07-26T12:40:13.441Z,61.88
2022-07-26T12:41:13.808Z,78.75
2022-07-26T12:42:16.846Z,90.00
2022-07-26T12:43:13.420Z,95.62
2022-07-26T12:44:13.803Z,101.25
2022-07-26T12:45:13.397Z,118.12
2022-07-26T12:46:13.412Z,129.38
2022-07-26T12:47:13.652Z,140.62
2022-07-26T12:48:13.363Z,151.88
2022-07-26T12:49:13.457Z,163.12
2022-07-26T12:50:13.335Z,168.75
2022-07-26T12:51:13.316Z,180.00
2022-07-26T12:52:13.341Z,191.25
2022-07-26T12:53:13.341Z,208.12
2022-07-26T12:54:13.859Z,225.00
2022-07-26T12:55:19.784Z,241.88
2022-07-26T12:56:13.278Z,264.38
2022-07-26T12:57:13.263Z,292.50
2022-07-26T12:58:14.220Z,320.62
2022-07-26T12:59:17.857Z,354.38
2022-07-26T13:00:13.239Z,388.12
2022-07-26T13:01:13.304Z,433.12
2022-07-26T13:02:13.222Z,478.12
2022-07-26T13:03:14.168Z,534.38
2022-07-26T13:04:13.633Z,579.38
2022-07-26T13:05:13.243Z,641.25
2022-07-26T13:06:13.169Z,686.25
2022-07-26T13:07:13.148Z,742.50
2022-07-26T13:08:13.140Z,793.12
2022-07-26T13:09:13.141Z,855.00
2022-07-26T13:11:13.109Z,1023.75
2022-07-26T13:12:13.086Z,1006.88
2022-07-26T13:13:13.089Z,1018.12
2022-07-26T13:14:13.539Z,1164.38
2022-07-26T13:15:13.055Z,1918.12
2022-07-26T13:16:13.043Z,1726.88
2022-07-26T13:17:13.108Z,1260.00
2022-07-26T13:18:13.027Z,2210.62
2022-07-26T13:19:13.022Z,2188.12
2022-07-26T13:20:13.022Z,2075.62
2022-07-26T13:21:12.998Z,1456.88
2022-07-26T13:22:12.992Z,1080.00
2022-07-26T13:23:15.841Z,1102.50
2022-07-26T13:24:13.358Z,967.50
2022-07-26T13:25:12.948Z,900.00
2022-07-26T13:26:12.962Z,928.12
2022-07-26T13:27:12.929Z,1828.12
2022-07-26T13:28:12.920Z,1968.75
2022-07-26T13:29:12.923Z,1355.62
2022-07-26T13:30:12.933Z,1906.88
2022-07-26T13:31:13.047Z,1873.12
2022-07-26T13:32:12.905Z,1833.75
2022-07-26T13:33:12.884Z,1811.25
2022-07-26T13:34:13.442Z,1811.25
2022-07-26T13:35:12.845Z,1805.62
2022-07-26T13:36:12.875Z,928.12
2022-07-26T13:37:12.837Z,725.62
2022-07-26T13:38:12.827Z,1704.38
2022-07-26T13:39:12.809Z,1743.75
2022-07-26T13:40:12.810Z,1721.25
2022-07-26T13:41:12.871Z,1681.88
2022-07-26T13:42:12.825Z,1665.00
2022-07-26T13:43:12.762Z,1665.00
2022-07-26T13:44:13.418Z,1659.38
2022-07-26T13:45:12.753Z,1659.38
2022-07-26T13:46:12.835Z,1653.75
2022-07-26T13:47:12.725Z,1631.25
2022-07-26T13:48:12.724Z,1670.62
2022-07-26T13:49:12.787Z,1732.50
2022-07-26T13:50:12.722Z,1783.12
2022-07-26T13:51:12.695Z,1777.50
2022-07-26T13:52:16.482Z,1715.62
2022-07-26T13:53:12.675Z,1648.12
2022-07-26T13:54:13.288Z,1614.38
2022-07-26T13:55:12.661Z,1586.25
2022-07-26T13:56:12.680Z,1462.50
2022-07-26T13:57:12.646Z,1614.38
2022-07-26T13:58:12.633Z,1687.50
2022-07-26T13:59:12.631Z,1839.38
2022-07-26T14:00:12.618Z,1822.50
2022-07-26T14:01:12.695Z,1794.38
2022-07-26T14:02:12.726Z,1766.25
2022-07-26T14:03:12.640Z,1693.12
2022-07-26T14:04:13.244Z,1462.50
2022-07-26T14:05:19.084Z,911.25
2022-07-26T14:06:12.569Z,1046.25
2022-07-26T14:07:12.545Z,1681.88
2022-07-26T14:08:12.562Z,1614.38
2022-07-26T14:09:12.530Z,1541.25
2022-07-26T14:10:12.513Z,1653.75
2022-07-26T14:11:12.530Z,1636.88
2022-07-26T14:12:12.539Z,1625.62
2022-07-26T14:13:12.526Z,1608.75
2022-07-26T14:14:12.949Z,1580.62
2022-07-26T14:15:18.004Z,1631.25
2022-07-26T14:16:12.501Z,1642.50
2022-07-26T14:17:12.453Z,1597.50
2022-07-26T14:18:12.493Z,1603.12
2022-07-26T14:19:12.471Z,1591.88
2022-07-26T14:20:12.444Z,1603.12
2022-07-26T14:21:12.431Z,1591.88
2022-07-26T14:22:12.458Z,1636.88
2022-07-26T14:23:12.409Z,1614.38
2022-07-26T14:24:12.702Z,1603.12
2022-07-26T14:25:12.399Z,1597.50
2022-07-26T14:26:12.381Z,1591.88
2022-07-26T14:27:12.391Z,1620.00
2022-07-26T14:28:12.350Z,1620.00
2022-07-26T14:29:12.387Z,1721.25
2022-07-26T14:30:12.352Z,1828.12
2022-07-26T14:31:12.411Z,1434.38
2022-07-26T14:32:12.404Z,832.50
2022-07-26T14:33:12.333Z,2064.38
2022-07-26T14:34:12.651Z,2126.25
2022-07-26T14:35:12.302Z,911.25
2022-07-26T14:36:12.308Z,2047.50
2022-07-26T14:37:41.006Z,1963.12
2022-07-26T14:38:12.279Z,1642.50
2022-07-26T14:39:12.291Z,1884.38
2022-07-26T14:40:12.260Z,1676.25
2022-07-26T14:41:12.242Z,1918.12
2022-07-26T14:42:12.224Z,1878.75
2022-07-26T14:43:12.285Z,1828.12
2022-07-26T14:44:12.647Z,1085.62
2022-07-26T14:45:12.199Z,843.75
2022-07-26T14:46:12.322Z,1513.12
2022-07-26T14:47:12.195Z,1822.50
2022-07-26T14:48:12.188Z,1366.88
2022-07-26T14:49:12.206Z,1906.88
2022-07-26T14:50:12.183Z,1715.62
2022-07-26T14:51:12.147Z,1805.62
2022-07-26T14:52:12.141Z,1743.75
2022-07-26T14:53:12.205Z,703.12
2022-07-26T14:54:12.415Z,630.00
2022-07-26T14:55:24.674Z,534.38
2022-07-26T14:56:12.154Z,708.75
2022-07-26T14:57:12.100Z,669.38
2022-07-26T14:58:12.115Z,652.50
2022-07-26T14:59:12.075Z,663.75
2022-07-26T15:00:12.109Z,1355.62
2022-07-26T15:01:12.117Z,922.50
2022-07-26T15:02:12.137Z,669.38
2022-07-26T15:03:12.029Z,624.38
2022-07-26T15:04:12.407Z,613.12
2022-07-26T15:05:12.028Z,1271.25
2022-07-26T15:06:12.039Z,1552.50
2022-07-26T15:07:12.013Z,781.88
2022-07-26T15:08:11.998Z,523.12
2022-07-26T15:09:11.982Z,568.12
2022-07-26T15:10:11.984Z,624.38
2022-07-26T15:11:11.981Z,1485.00
2022-07-26T15:12:11.979Z,1490.62
2022-07-26T15:13:11.965Z,1456.88
2022-07-26T15:14:12.415Z,1411.88
2022-07-26T15:15:18.489Z,1181.25
2022-07-26T15:16:12.010Z,1395.00
2022-07-26T15:17:11.907Z,1389.38
2022-07-26T15:18:11.914Z,1271.25
2022-07-26T15:19:11.896Z,472.50
2022-07-26T15:20:11.890Z,337.50
2022-07-26T15:21:11.857Z,253.12
2022-07-26T15:22:11.858Z,196.88
2022-07-26T15:23:11.925Z,151.88
2022-07-26T15:24:12.265Z,129.38
2022-07-26T15:25:11.831Z,123.75
2022-07-26T15:26:11.830Z,123.75
2022-07-26T15:27:11.797Z,123.75
2022-07-26T15:28:11.786Z,123.75
2022-07-26T15:29:11.797Z,112.50
2022-07-26T15:30:14.745Z,106.88
2022-07-26T15:31:11.787Z,95.62
2022-07-26T15:32:11.885Z,78.75
2022-07-26T15:33:11.735Z,67.50
2022-07-26T15:34:12.147Z,50.62
2022-07-26T15:35:18.254Z,45.00
2022-07-26T15:36:11.697Z,39.38
2022-07-26T15:37:11.727Z,39.38
2022-07-26T15:38:11.689Z,39.38
2022-07-26T15:39:17.054Z,39.38
2022-07-26T15:40:11.699Z,39.38
2022-07-26T15:41:11.670Z,45.00
2022-07-26T15:42:11.668Z,45.00
2022-07-26T15:43:11.647Z,50.62
2022-07-26T15:44:12.502Z,56.25
2022-07-26T15:45:11.604Z,61.88
2022-07-26T15:46:11.760Z,67.50
2022-07-26T15:47:12.016Z,73.12
2022-07-26T15:48:17.236Z,73.12
2022-07-26T15:49:11.625Z,84.38
2022-07-26T15:50:11.577Z,101.25
2022-07-26T15:51:11.550Z,123.75
2022-07-26T15:52:11.557Z,140.62
2022-07-26T15:53:28.793Z,185.62
2022-07-26T15:54:11.972Z,180.00
2022-07-26T15:55:11.525Z,219.38
2022-07-26T15:56:11.484Z,241.88
2022-07-26T15:57:11.486Z,275.62
2022-07-26T15:58:11.482Z,303.75
2022-07-26T15:59:11.479Z,315.00
2022-07-26T16:00:12.195Z,337.50
2022-07-26T16:01:11.516Z,365.62
2022-07-26T16:02:11.489Z,410.62
2022-07-26T16:03:11.416Z,444.38
2022-07-26T16:04:11.901Z,438.75
2022-07-26T16:05:11.386Z,472.50
2022-07-26T16:06:11.404Z,669.38
2022-07-26T16:07:11.444Z,652.50
2022-07-26T16:08:11.415Z,663.75
2022-07-26T16:09:17.127Z,900.00
2022-07-26T16:10:11.384Z,849.38
2022-07-26T16:11:11.339Z,1198.12
2022-07-26T16:12:11.339Z,1231.88
2022-07-26T16:13:11.322Z,1237.50
2022-07-26T16:14:11.336Z,1254.38
2022-07-26T16:15:11.344Z,1237.50
2022-07-26T16:16:11.409Z,1254.38
2022-07-26T16:17:11.270Z,1186.88
2022-07-26T16:18:11.268Z,1198.12
2022-07-26T16:19:11.655Z,1170.00
2022-07-26T16:20:11.259Z,1102.50
2022-07-26T16:21:11.237Z,1046.25
2022-07-26T16:22:11.228Z,1113.75
2022-07-26T16:23:11.216Z,1153.12
2022-07-26T16:24:11.212Z,1175.62
2022-07-26T16:25:11.245Z,1175.62
2022-07-26T16:26:11.191Z,1209.38
2022-07-26T16:27:11.170Z,1203.75
2022-07-26T16:28:11.167Z,1186.88
2022-07-26T16:29:11.552Z,1175.62
2022-07-26T16:30:11.157Z,1158.75
2022-07-26T16:31:11.175Z,1170.00
2022-07-26T16:32:11.225Z,1186.88
2022-07-26T16:33:11.128Z,1085.62
2022-07-26T16:34:11.119Z,1113.75
2022-07-26T16:35:11.086Z,1141.88
2022-07-26T16:36:11.102Z,1102.50
2022-07-26T16:37:11.077Z,1108.12
2022-07-26T16:38:11.080Z,1080.00
2022-07-26T16:39:11.465Z,1046.25
2022-07-26T16:40:11.052Z,1091.25
2022-07-26T16:41:11.035Z,1035.00
2022-07-26T16:42:11.022Z,826.88
2022-07-26T16:43:11.986Z,736.88
2022-07-26T16:44:11.019Z,1006.88
2022-07-26T16:45:10.982Z,1023.75
2022-07-26T16:46:11.046Z,1018.12
2022-07-26T16:47:10.998Z,1018.12
2022-07-26T16:48:10.993Z,961.88
2022-07-26T16:49:11.325Z,911.25
2022-07-26T16:50:10.943Z,911.25
2022-07-26T16:51:10.933Z,849.38
2022-07-26T16:52:10.916Z,849.38
2022-07-26T16:53:13.328Z,826.88
2022-07-26T16:54:10.925Z,866.25
2022-07-26T16:55:10.895Z,720.00
2022-07-26T16:56:10.929Z,691.88
2022-07-26T16:57:10.875Z,360.00
2022-07-26T16:58:10.864Z,343.12
2022-07-26T16:59:10.923Z,410.62
2022-07-26T17:00:10.847Z,590.62
2022-07-26T17:01:10.860Z,298.12
2022-07-26T17:02:10.870Z,292.50
2022-07-26T17:03:10.817Z,264.38
2022-07-26T17:04:10.798Z,258.75
2022-07-26T17:05:17.339Z,219.38
2022-07-26T17:06:10.776Z,225.00
2022-07-26T17:07:26.520Z,225.00
2022-07-26T17:08:10.787Z,236.25
2022-07-26T17:09:15.083Z,270.00
2022-07-26T17:10:10.724Z,264.38
2022-07-26T17:11:10.725Z,320.62